Time;durP1;ratioP1;P1;durP2;ratioP2;P2;SDS_P1;SDS_P2;PMS_P1;PMS_P2;Temp;Humidity;BMP_temperature;BMP_pressure;BME280_temperature;BME280_humidity;BME280_pressure;Samples;Min_cycle;Max_cycle;Signal;HPM_P1;HPM_P2
2021/03/09 00:00:32;;;;;;;2.40;0.90;;;;;;;-4.33;64.27;99676.20;1767086;79;21211;-56
2021/03/09 00:03:00;;;;;;;3.40;1.00;;;;;;;-4.30;64.36;99677.12;1766797;79;21195;-56
2021/03/09 00:05:27;;;;;;;1.43;0.70;;;;;;;-4.26;64.55;99673.67;1765449;79;21161;-56
2021/03/09 00:07:54;;;;;;;2.17;0.90;;;;;;;-4.22;64.46;99669.31;1765757;79;21155;-57
2021/03/09 00:10:22;;;;;;;0.97;0.50;;;;;;;-4.19;64.49;99674.61;1762272;79;21254;-56
2021/03/09 00:12:49;;;;;;;3.07;0.50;;;;;;;-4.14;64.41;99669.38;1768059;79;21906;-57
2021/03/09 00:15:18;;;;;;;2.67;0.50;;;;;;;-4.12;64.25;99676.42;1771506;79;21165;-57
2021/03/09 00:17:45;;;;;;;2.23;0.70;;;;;;;-4.11;64.30;99671.61;1772544;79;21262;-57
2021/03/09 00:20:14;;;;;;;2.13;0.80;;;;;;;-4.10;64.27;99671.18;1772634;79;22880;-56
2021/03/09 00:22:41;;;;;;;2.63;0.67;;;;;;;-4.08;64.37;99672.09;1772822;80;21397;-55
2021/03/09 00:25:10;;;;;;;2.83;0.57;;;;;;;-4.04;64.36;99665.97;1774405;79;21170;-57
2021/03/09 00:27:37;;;;;;;0.70;0.30;;;;;;;-4.02;64.27;99674.33;1775459;79;21621;-56
2021/03/09 00:30:05;;;;;;;1.37;0.50;;;;;;;-3.99;64.42;99667.76;1772490;79;21119;-56
2021/03/09 00:32:33;;;;;;;3.33;0.70;;;;;;;-3.96;64.46;99668.23;1772340;79;21123;-58
2021/03/09 00:35:00;;;;;;;3.00;0.97;;;;;;;-3.94;64.44;99667.81;1769592;79;21449;-57
2021/03/09 00:37:28;;;;;;;1.80;0.50;;;;;;;-3.90;64.61;99672.21;1773250;79;22111;-57
2021/03/09 00:39:56;;;;;;;2.87;1.00;;;;;;;-3.86;64.64;99677.95;1774663;79;21099;-57
2021/03/09 00:42:23;;;;;;;2.37;0.60;;;;;;;-3.85;64.34;99677.09;1773674;79;21126;-57
2021/03/09 00:44:50;;;;;;;3.03;0.50;;;;;;;-3.84;64.40;99673.60;1774952;78;21115;-59
2021/03/09 00:47:17;;;;;;;1.33;0.40;;;;;;;-3.79;64.40;99676.25;1771459;79;21190;-57
2021/03/09 00:49:45;;;;;;;3.47;0.60;;;;;;;-3.78;64.36;99671.44;1770965;79;21136;-57
2021/03/09 00:52:14;;;;;;;3.30;0.70;;;;;;;-3.77;64.38;99674.09;1770770;80;21246;-57
2021/03/09 00:54:41;;;;;;;3.13;1.13;;;;;;;-3.75;64.31;99678.05;1777803;79;21166;-57
2021/03/09 00:57:08;;;;;;;3.00;0.80;;;;;;;-3.72;64.43;99678.05;1769800;79;21171;-57
2021/03/09 00:59:35;;;;;;;3.80;0.77;;;;;;;-3.70;64.51;99673.69;1735812;81;21630;-57
2021/03/09 01:02:03;;;;;;;4.83;1.43;;;;;;;-3.67;64.63;99664.52;1735345;81;21216;-57
2021/03/09 01:04:31;;;;;;;2.97;0.80;;;;;;;-3.65;64.57;99665.39;1735546;81;21215;-57
2021/03/09 01:06:58;;;;;;;3.23;0.87;;;;;;;-3.63;64.45;99666.28;1705489;82;21596;-57
2021/03/09 01:09:26;;;;;;;5.07;1.00;;;;;;;-3.63;64.45;99669.80;1710310;82;21212;-56
2021/03/09 01:11:53;;;;;;;3.53;1.10;;;;;;;-3.62;64.56;99672.00;1716423;82;22552;-57
2021/03/09 01:14:21;;;;;;;2.60;0.70;;;;;;;-3.61;64.78;99669.81;1720232;81;21233;-56
2021/03/09 01:16:48;;;;;;;2.80;0.70;;;;;;;-3.58;64.83;99669.41;1712772;81;21554;-57
2021/03/09 01:19:15;;;;;;;2.80;0.80;;;;;;;-3.54;64.75;99665.03;1714735;81;21219;-57
2021/03/09 01:21:43;;;;;;;2.33;0.70;;;;;;;-3.50;64.79;99668.15;1714256;81;21220;-58
2021/03/09 01:24:11;;;;;;;2.27;0.50;;;;;;;-3.50;64.74;99671.66;1717543;81;21216;-57
2021/03/09 01:26:38;;;;;;;3.07;0.50;;;;;;;-3.50;64.68;99675.61;1718377;81;21168;-57
2021/03/09 01:29:05;;;;;;;1.43;0.57;;;;;;;-3.49;64.79;99672.55;1714104;81;21146;-58
2021/03/09 01:31:34;;;;;;;0.90;0.43;;;;;;;-3.45;64.95;99687.47;1715095;81;21525;-56
2021/03/09 01:34:01;;;;;;;1.30;0.47;;;;;;;-3.43;64.73;99692.31;1716491;82;21190;-57
2021/03/09 01:36:29;;;;;;;0.90;0.50;;;;;;;-3.41;64.79;99689.27;1713778;82;22163;-57
2021/03/09 01:38:56;;;;;;;1.83;0.50;;;;;;;-3.41;64.59;99691.02;1713950;81;21469;-56
2021/03/09 01:41:23;;;;;;;1.53;0.60;;;;;;;-3.38;64.74;99687.06;1712784;81;21592;-58
2021/03/09 01:43:50;;;;;;;4.03;0.63;;;;;;;-3.37;64.62;99691.02;1696186;82;21229;-57
2021/03/09 01:46:18;;;;;;;1.80;0.63;;;;;;;-3.32;64.69;99680.11;1699122;82;21223;-57
2021/03/09 01:48:46;;;;;;;2.87;0.60;;;;;;;-3.32;64.62;99676.16;1764266;79;22637;-56
2021/03/09 01:51:18;;;;;;;4.47;0.80;;;;;;;-3.29;64.58;99676.16;1732261;79;21579;-58
2021/03/09 01:53:45;;;;;;;1.70;0.70;;;;;;;-3.29;64.46;99672.64;1764642;79;21530;-56
2021/03/09 01:56:12;;;;;;;2.50;0.70;;;;;;;-3.26;64.29;99672.67;1761977;79;21199;-56
2021/03/09 01:58:42;;;;;;;5.67;0.77;;;;;;;-3.26;64.35;99675.30;1731552;80;21162;-57
2021/03/09 02:01:10;;;;;;;1.93;0.50;;;;;;;-3.25;64.37;99677.07;1763012;80;23138;-56
2021/03/09 02:03:37;;;;;;;1.63;0.50;;;;;;;-3.23;64.29;99675.34;1734504;79;21193;-57
2021/03/09 02:06:05;;;;;;;2.03;0.60;;;;;;;-3.19;64.37;99684.56;1764531;79;21476;-58
2021/03/09 02:08:34;;;;;;;2.80;0.63;;;;;;;-3.15;64.44;99682.84;1732387;80;21222;-56
2021/03/09 02:11:04;;;;;;;2.57;0.80;;;;;;;-3.13;64.40;99688.97;1762171;79;21222;-57
2021/03/09 02:14:12;;;;;;;2.10;0.70;;;;;;;-3.09;64.47;99692.08;1735011;80;21214;-57
2021/03/09 02:16:50;;;;;;;2.37;0.53;;;;;;;-3.07;64.29;99696.48;1710683;81;21177;-58
2021/03/09 02:20:15;;;;;;;0.80;0.40;;;;;;;-3.06;64.29;99690.32;1688211;82;21226;-59
2021/03/09 02:23:12;;;;;;;2.03;0.50;;;;;;;-3.03;64.40;99693.85;1618149;86;21680;-58
2021/03/09 02:26:12;;;;;;;1.70;0.70;;;;;;;-3.01;64.06;99701.33;1621009;86;21206;-57
2021/03/09 02:29:06;;;;;;;1.83;0.50;;;;;;;-3.03;63.75;99695.16;1587977;88;22918;-57
2021/03/09 02:31:41;;;;;;;1.60;0.50;;;;;;;-3.01;63.87;99695.63;1864668;75;26052;-57
2021/03/09 02:34:11;;;;;;;0.80;0.40;;;;;;;-3.03;63.81;99700.44;1865660;74;21157;-57
2021/03/09 02:36:40;;;;;;;0.57;0.40;;;;;;;-3.03;63.84;99708.33;1865516;74;21344;-58
2021/03/09 02:39:10;;;;;;;3.30;0.50;;;;;;;-3.03;63.71;99704.38;1861509;74;21039;-58
2021/03/09 02:41:44;;;;;;;1.93;0.50;;;;;;;-3.02;63.53;99704.40;1851346;74;20989;-58
2021/03/09 02:44:16;;;;;;;1.60;0.40;;;;;;;-3.01;63.41;99709.23;1840291;76;21047;-59
2021/03/09 02:46:45;;;;;;;1.13;0.40;;;;;;;-3.01;63.25;99711.86;1835786;76;21063;-59
2021/03/09 02:49:15;;;;;;;1.17;0.40;;;;;;;-3.03;63.09;99709.65;1830145;76;21608;-59
2021/03/09 02:51:44;;;;;;;2.57;0.40;;;;;;;-3.03;62.79;99711.84;1834067;76;21162;-57
2021/03/09 02:54:13;;;;;;;1.10;0.40;;;;;;;-3.03;62.58;99717.55;1835245;76;21020;-59
2021/03/09 02:56:42;;;;;;;0.60;0.40;;;;;;;-3.06;62.38;99725.88;1840134;76;21181;-56
2021/03/09 02:59:15;;;;;;;1.00;0.30;;;;;;;-3.08;62.19;99726.76;1837159;76;21186;-58
2021/03/09 03:01:45;;;;;;;0.73;0.40;;;;;;;-3.10;62.00;99728.48;1833375;76;21435;-57
2021/03/09 03:04:16;;;;;;;0.70;0.30;;;;;;;-3.16;61.85;99720.56;1838724;76;21213;-56
2021/03/09 03:06:47;;;;;;;0.50;0.20;;;;;;;-3.20;61.79;99722.28;1832751;76;21795;-57
2021/03/09 03:09:19;;;;;;;1.67;0.20;;;;;;;-3.24;61.92;99721.84;1834764;76;21416;-59
2021/03/09 03:11:47;;;;;;;1.50;0.20;;;;;;;-3.30;62.16;99725.72;1828008;76;22146;-57
2021/03/09 03:14:14;;;;;;;1.00;0.20;;;;;;;-3.29;62.53;99730.12;1839904;76;21293;-57
2021/03/09 03:16:41;;;;;;;0.80;0.23;;;;;;;-3.29;62.75;99726.17;1841021;76;21517;-58
2021/03/09 03:19:09;;;;;;;1.07;0.20;;;;;;;-3.27;63.01;99732.77;1840880;76;21082;-57
2021/03/09 03:21:39;;;;;;;0.70;0.20;;;;;;;-3.24;62.82;99729.73;1841227;76;21458;-56
2021/03/09 03:24:08;;;;;;;0.50;0.30;;;;;;;-3.23;63.08;99736.73;1833415;76;21071;-57
2021/03/09 03:26:39;;;;;;;0.77;0.20;;;;;;;-3.21;63.11;99733.69;1838520;76;21181;-58
2021/03/09 03:29:07;;;;;;;0.80;0.30;;;;;;;-3.22;63.20;99737.19;1841450;76;21103;-58
2021/03/09 03:31:35;;;;;;;0.80;0.30;;;;;;;-3.22;62.99;99743.77;1842935;75;21102;-59
2021/03/09 03:34:05;;;;;;;0.70;0.40;;;;;;;-3.21;63.11;99748.16;1842022;75;21304;-59
2021/03/09 03:36:36;;;;;;;1.07;0.30;;;;;;;-3.19;63.13;99756.95;1776152;79;21135;-58
2021/03/09 03:39:05;;;;;;;0.90;0.30;;;;;;;-3.20;63.05;99756.94;1781255;78;21204;-59
2021/03/09 03:41:32;;;;;;;2.07;0.40;;;;;;;-3.22;63.21;99758.24;1799546;79;21811;-59
2021/03/09 03:43:59;;;;;;;0.70;0.30;;;;;;;-3.19;63.10;99755.64;1799750;79;20985;-59
2021/03/09 03:46:26;;;;;;;0.53;0.23;;;;;;;-3.19;62.97;99762.22;1801368;79;21109;-59
2021/03/09 03:48:54;;;;;;;1.23;0.23;;;;;;;-3.21;62.84;99768.34;1799690;79;21095;-57
2021/03/09 03:51:29;;;;;;;0.77;0.27;;;;;;;-3.25;62.89;99770.52;1799304;79;21271;-59
2021/03/09 03:54:21;;;;;;;0.50;0.30;;;;;;;-3.29;62.96;99769.61;1797701;79;21519;-59
2021/03/09 03:57:03;;;;;;;0.40;0.23;;;;;;;-3.30;63.08;99773.10;1795562;79;21128;-58
2021/03/09 03:59:34;;;;;;;0.60;0.20;;;;;;;-3.27;63.12;99784.09;1799335;79;21629;-59
2021/03/09 04:02:06;;;;;;;0.50;0.23;;;;;;;-3.24;63.08;99782.38;1768825;79;21182;-57
2021/03/09 04:04:35;;;;;;;0.93;0.30;;;;;;;-3.20;63.12;99787.22;1794787;79;21238;-58
2021/03/09 04:07:02;;;;;;;0.63;0.30;;;;;;;-3.19;63.13;99788.98;1801889;79;21108;-58
2021/03/09 04:09:29;;;;;;;0.50;0.20;;;;;;;-3.21;62.98;99785.02;1800959;79;21096;-57
2021/03/09 04:11:56;;;;;;;0.50;0.20;;;;;;;-3.23;63.23;99786.75;1797720;79;21179;-58
2021/03/09 04:14:23;;;;;;;2.83;0.30;;;;;;;-3.22;63.12;99784.57;1794926;79;21191;-59
2021/03/09 04:16:53;;;;;;;0.60;0.20;;;;;;;-3.25;62.97;99787.63;1795692;79;21259;-59
2021/03/09 04:19:21;;;;;;;1.80;0.20;;;;;;;-3.25;63.04;99788.95;1802660;79;21131;-59
2021/03/09 04:21:48;;;;;;;0.60;0.30;;;;;;;-3.27;62.99;99794.63;1748945;79;21170;-57
2021/03/09 04:24:15;;;;;;;0.73;0.30;;;;;;;-3.24;63.25;99790.28;1765218;79;21193;-57
2021/03/09 04:26:44;;;;;;;0.20;0.10;;;;;;;-3.23;62.95;99795.96;1766035;79;21526;-58
2021/03/09 04:29:12;;;;;;;1.00;0.30;;;;;;;-3.23;62.86;99799.91;1799686;79;21379;-59
2021/03/09 04:31:41;;;;;;;0.60;0.20;;;;;;;-3.25;62.89;99788.95;1783695;79;21271;-58
2021/03/09 04:34:09;;;;;;;0.40;0.23;;;;;;;-3.24;62.78;99798.18;1776827;79;21380;-58
2021/03/09 04:36:37;;;;;;;2.07;0.10;;;;;;;-3.26;62.58;99794.65;1773922;79;21196;-58
2021/03/09 04:39:06;;;;;;;0.57;0.20;;;;;;;-3.25;62.82;99789.83;1776984;79;21092;-58
2021/03/09 04:41:33;;;;;;;0.80;0.20;;;;;;;-3.26;62.72;99798.59;1774359;79;21245;-58
2021/03/09 04:44:00;;;;;;;0.60;0.20;;;;;;;-3.25;62.52;99803.42;1771793;79;21606;-57
2021/03/09 04:46:28;;;;;;;2.10;0.20;;;;;;;-3.27;62.56;99807.36;1774766;79;21175;-56
2021/03/09 04:48:56;;;;;;;0.40;0.20;;;;;;;-3.23;62.46;99804.33;1773630;79;21723;-58
2021/03/09 04:51:24;;;;;;;0.43;0.20;;;;;;;-3.21;62.17;99811.34;1777128;79;21100;-57
2021/03/09 04:53:51;;;;;;;0.97;0.20;;;;;;;-3.18;62.14;99815.77;1776808;80;21420;-56
2021/03/09 04:56:18;;;;;;;0.67;0.20;;;;;;;-3.18;61.92;99820.59;1776901;79;21614;-58
2021/03/09 04:58:46;;;;;;;1.90;0.30;;;;;;;-3.16;62.03;99822.81;1779044;79;21260;-58
2021/03/09 05:01:13;;;;;;;1.13;0.20;;;;;;;-3.16;61.90;99816.66;1773707;79;21598;-59
2021/03/09 05:03:40;;;;;;;1.53;0.30;;;;;;;-3.13;61.88;99819.30;1773946;79;21183;-58
2021/03/09 05:06:07;;;;;;;0.90;0.30;;;;;;;-3.11;61.93;99824.15;1772982;79;21411;-57
2021/03/09 05:08:34;;;;;;;1.57;0.30;;;;;;;-3.12;61.84;99827.64;1775330;79;21630;-57
2021/03/09 05:11:01;;;;;;;0.70;0.33;;;;;;;-3.13;62.18;99835.09;1772213;79;21159;-58
2021/03/09 05:13:32;;;;;;;0.93;0.30;;;;;;;-3.10;62.26;99832.50;1769705;79;21164;-58
2021/03/09 05:15:59;;;;;;;0.60;0.40;;;;;;;-3.05;62.39;99837.35;1771102;79;21191;-57
2021/03/09 05:18:26;;;;;;;1.67;0.30;;;;;;;-3.05;62.86;99839.55;1776028;79;21213;-59
2021/03/09 05:20:53;;;;;;;1.17;0.40;;;;;;;-3.08;63.12;99843.50;1779211;79;21187;-57
2021/03/09 05:23:21;;;;;;;1.30;0.40;;;;;;;-3.08;63.52;99850.08;1771823;79;21203;-58
2021/03/09 05:25:48;;;;;;;1.07;0.30;;;;;;;-3.08;63.66;99860.62;1776455;80;21454;-59
2021/03/09 05:28:15;;;;;;;0.83;0.40;;;;;;;-3.06;63.75;99866.75;1774880;79;21177;-59
2021/03/09 05:30:42;;;;;;;2.20;0.20;;;;;;;-3.04;63.82;99868.09;1780714;78;22045;-60
2021/03/09 05:33:10;;;;;;;0.50;0.20;;;;;;;-3.16;62.42;99870.20;1799907;78;21186;-60
2021/03/09 05:35:37;;;;;;;0.33;0.20;;;;;;;-3.31;62.58;99876.63;1800027;78;21254;-59
2021/03/09 05:38:04;;;;;;;0.30;0.10;;;;;;;-3.41;62.73;99878.75;1799993;78;21091;-58
2021/03/09 05:40:33;;;;;;;0.20;0.10;;;;;;;-3.44;62.87;99882.66;1803829;78;21187;-59
2021/03/09 05:43:00;;;;;;;0.50;0.30;;;;;;;-3.46;62.94;99879.12;1803590;78;23207;-58
2021/03/09 05:45:27;;;;;;;2.63;0.20;;;;;;;-3.45;63.00;99883.09;1803196;78;21198;-59
2021/03/09 05:47:54;;;;;;;1.00;0.20;;;;;;;-3.41;62.98;99887.08;1802515;78;21979;-57
2021/03/09 05:50:22;;;;;;;0.43;0.20;;;;;;;-3.37;63.15;99891.05;1771109;78;21151;-59
2021/03/09 05:52:49;;;;;;;1.27;0.50;;;;;;;-3.33;62.95;99890.23;1801755;78;21193;-57
2021/03/09 05:55:16;;;;;;;0.70;0.30;;;;;;;-3.31;62.87;99891.10;1803677;78;23503;-57
2021/03/09 05:57:43;;;;;;;0.40;0.20;;;;;;;-3.28;62.86;99889.83;1799511;78;21206;-59
2021/03/09 06:00:12;;;;;;;0.97;0.20;;;;;;;-3.25;62.67;99891.61;1800611;77;21134;-59
2021/03/09 06:02:41;;;;;;;0.80;0.30;;;;;;;-3.22;62.42;99900.84;1783813;78;21111;-58
2021/03/09 06:05:10;;;;;;;0.50;0.30;;;;;;;-3.19;62.55;99907.02;1785073;78;22176;-59
2021/03/09 06:07:37;;;;;;;0.63;0.30;;;;;;;-3.12;62.47;99909.27;1783393;78;22143;-58
2021/03/09 06:10:06;;;;;;;1.57;0.30;;;;;;;-3.07;62.41;99911.53;1806362;78;21147;-58
2021/03/09 06:12:34;;;;;;;0.70;0.30;;;;;;;-3.02;62.17;99916.83;1799709;78;21194;-57
2021/03/09 06:15:03;;;;;;;0.50;0.20;;;;;;;-3.01;62.21;99917.28;1801649;78;21163;-57
2021/03/09 06:17:39;;;;;;;0.87;0.30;;;;;;;-3.01;61.99;99923.42;1802122;78;21087;-58
2021/03/09 06:20:19;;;;;;;0.60;0.30;;;;;;;-2.97;62.44;99926.95;1805896;78;21214;-58
2021/03/09 06:22:48;;;;;;;1.13;0.30;;;;;;;-2.91;62.68;99920.44;1806501;78;21135;-59
2021/03/09 06:25:17;;;;;;;0.93;0.37;;;;;;;-2.83;62.56;99927.53;1802704;78;21190;-58
2021/03/09 06:27:45;;;;;;;1.27;0.30;;;;;;;-2.79;62.25;99935.02;1803136;78;22015;-59
2021/03/09 06:30:16;;;;;;;0.83;0.40;;;;;;;-2.81;61.96;99937.66;1804114;78;21127;-57
2021/03/09 06:32:45;;;;;;;0.80;0.30;;;;;;;-2.82;61.89;99935.89;1752620;79;21649;-58
2021/03/09 06:35:41;;;;;;;1.27;0.30;;;;;;;-2.82;61.81;99941.16;1780981;79;21119;-59
2021/03/09 06:38:29;;;;;;;0.97;0.40;;;;;;;-2.80;61.69;99943.34;1785555;79;21086;-59
2021/03/09 06:41:17;;;;;;;2.50;0.30;;;;;;;-2.80;61.44;99953.88;1782859;79;21099;-59
2021/03/09 06:43:49;;;;;;;0.63;0.33;;;;;;;-2.80;61.22;99958.27;1786681;79;20977;-57
2021/03/09 06:46:21;;;;;;;1.33;0.40;;;;;;;-2.81;61.26;99962.69;1775942;79;21450;-58
2021/03/09 06:48:52;;;;;;;1.30;0.42;;;;;;;-2.78;61.34;99956.11;1780317;79;21127;-60
2021/03/09 06:51:34;;;;;;;1.67;0.40;;;;;;;-2.73;61.60;99958.36;1779447;79;21131;-60
2021/03/09 06:54:07;;;;;;;1.77;0.53;;;;;;;-2.76;61.46;99964.03;1780281;80;21088;-59
2021/03/09 06:56:38;;;;;;;1.23;0.40;;;;;;;-2.91;61.53;99975.75;1778929;79;21118;-59
2021/03/09 06:59:27;;;;;;;1.20;0.50;;;;;;;-3.02;62.15;99971.70;1783563;79;21303;-58
2021/03/09 07:02:13;;;;;;;1.97;0.43;;;;;;;-3.13;62.42;99972.90;1776276;79;21314;-59
2021/03/09 07:04:44;;;;;;;1.07;0.40;;;;;;;-3.16;62.94;99975.52;1779088;78;21099;-59
2021/03/09 07:07:14;;;;;;;0.97;0.43;;;;;;;-3.07;62.98;99987.47;1781272;79;21514;-59
2021/03/09 07:09:58;;;;;;;1.93;0.47;;;;;;;-3.10;63.03;99991.38;1776026;79;21159;-58
2021/03/09 07:12:26;;;;;;;1.60;0.50;;;;;;;-3.11;63.24;99984.34;1779079;79;21209;-60
2021/03/09 07:14:53;;;;;;;0.83;0.40;;;;;;;-3.09;63.01;99989.20;1782784;79;21715;-58
2021/03/09 07:17:23;;;;;;;0.73;0.60;;;;;;;-3.05;62.78;99988.77;1779812;80;21151;-59
2021/03/09 07:19:51;;;;;;;0.53;0.40;;;;;;;-3.01;62.71;99990.58;1778468;79;21504;-57
2021/03/09 07:22:19;;;;;;;0.80;0.30;;;;;;;-2.92;62.58;99992.42;1779203;80;21156;-57
2021/03/09 07:25:03;;;;;;;0.97;0.40;;;;;;;-2.86;62.13;99988.09;1783772;80;22335;-57
2021/03/09 07:27:58;;;;;;;2.00;0.50;;;;;;;-2.87;61.99;99991.59;1783985;79;21913;-58
2021/03/09 07:30:31;;;;;;;1.98;0.62;;;;;;;-2.81;62.04;99980.24;1780630;80;21160;-59
2021/03/09 07:32:59;;;;;;;0.73;0.40;;;;;;;-2.66;62.11;99984.32;1796497;78;21192;-60
2021/03/09 07:35:28;;;;;;;0.57;0.20;;;;;;;-2.55;60.96;99983.95;1805192;78;21212;-59
2021/03/09 07:37:56;;;;;;;0.40;0.20;;;;;;;-2.60;59.61;99994.02;1806922;78;22566;-59
2021/03/09 07:40:32;;;;;;;0.83;0.30;;;;;;;-2.73;59.29;99986.46;1806380;78;21155;-59
2021/03/09 07:42:59;;;;;;;0.80;0.40;;;;;;;-2.80;59.22;99981.55;1808285;78;21446;-59
2021/03/09 07:45:33;;;;;;;1.20;0.30;;;;;;;-2.81;58.54;99985.52;1801593;78;21202;-58
2021/03/09 07:48:09;;;;;;;0.60;0.30;;;;;;;-2.84;58.76;99988.99;1804180;78;21185;-60
2021/03/09 07:50:39;;;;;;;0.60;0.30;;;;;;;-2.80;58.80;99992.09;1807768;78;21382;-58
2021/03/09 07:53:18;;;;;;;0.70;0.30;;;;;;;-2.78;58.54;99991.67;1805657;78;21178;-58
2021/03/09 07:55:49;;;;;;;1.47;0.30;;;;;;;-2.72;58.71;99986.88;1807990;78;21161;-59
2021/03/09 07:58:26;;;;;;;0.90;0.40;;;;;;;-2.61;58.80;99990.50;1801113;78;21169;-58
2021/03/09 08:01:04;;;;;;;13.73;0.87;;;;;;;-2.48;58.82;99982.27;1799578;78;21176;-57
2021/03/09 08:03:34;;;;;;;1.10;0.30;;;;;;;-2.33;58.45;99981.94;1804546;78;22875;-58
2021/03/09 08:06:14;;;;;;;2.27;0.30;;;;;;;-2.29;58.27;99982.39;1801445;78;21604;-60
2021/03/09 08:08:54;;;;;;;0.70;0.30;;;;;;;-2.22;58.07;99982.45;1801442;78;21399;-59
2021/03/09 08:11:26;;;;;;;2.13;0.30;;;;;;;-2.16;57.94;99978.09;1801689;78;21331;-60
2021/03/09 08:14:11;;;;;;;0.60;0.30;;;;;;;-2.12;57.59;99982.50;1774887;78;21195;-58
2021/03/09 08:16:42;;;;;;;0.53;0.30;;;;;;;-2.11;56.90;99983.38;1805525;78;22182;-59
2021/03/09 08:19:30;;;;;;;1.05;0.33;;;;;;;-2.19;56.59;99974.54;1801659;78;21167;-60
2021/03/09 08:22:01;;;;;;;0.70;0.50;;;;;;;-2.21;56.60;99983.76;1805856;78;21179;-59
2021/03/09 08:24:46;;;;;;;2.00;0.33;;;;;;;-2.23;55.20;99991.23;1803480;77;21625;-59
2021/03/09 08:27:37;;;;;;;0.70;0.40;;;;;;;-2.26;55.24;99988.56;1807108;78;21547;-59
2021/03/09 08:30:30;;;;;;;0.33;0.20;;;;;;;-2.24;55.48;99991.66;1778958;78;21192;-60
2021/03/09 08:33:24;;;;;;;0.80;0.30;;;;;;;-2.20;54.28;99997.39;1806246;78;22514;-60
2021/03/09 08:35:52;;;;;;;1.00;0.23;;;;;;;-2.27;53.80;99993.39;1803526;78;21175;-60
2021/03/09 08:38:20;;;;;;;0.57;0.30;;;;;;;-2.27;54.20;99994.27;1801872;78;21171;-58
2021/03/09 08:41:05;;;;;;;0.80;0.40;;;;;;;-2.22;53.96;99989.94;1800173;78;21218;-60
2021/03/09 08:43:33;;;;;;;2.10;0.30;;;;;;;-2.16;54.05;99990.39;1778827;78;21751;-59
2021/03/09 08:46:01;;;;;;;0.50;0.30;;;;;;;-2.21;51.24;99986.39;1781683;78;22846;-60
2021/03/09 08:48:43;;;;;;;0.63;0.30;;;;;;;-2.23;51.12;99989.48;1801931;77;21174;-59
2021/03/09 08:51:43;;;;;;;0.60;0.30;;;;;;;-2.26;50.18;99997.36;1780496;78;21187;-59
2021/03/09 08:54:31;;;;;;;0.40;0.20;;;;;;;-2.29;49.10;99999.53;1805961;78;21193;-60
2021/03/09 08:57:01;;;;;;;0.60;0.20;;;;;;;-2.33;47.35;99997.76;1803067;78;21536;-60
2021/03/09 08:59:31;;;;;;;0.67;0.30;;;;;;;-2.25;47.91;99999.56;1808679;78;21656;-59
2021/03/09 09:02:08;;;;;;;0.70;0.33;;;;;;;-2.12;47.29;99992.16;1799050;78;21280;-57
2021/03/09 09:04:36;;;;;;;0.77;0.30;;;;;;;-2.00;46.30;99992.25;1805577;78;21115;-61
2021/03/09 09:07:39;;;;;;;0.60;0.27;;;;;;;-1.89;45.43;99999.80;1804317;78;21171;-59
2021/03/09 09:10:19;;;;;;;0.50;0.20;;;;;;;-1.98;44.19;99997.99;1803777;78;23538;-60
2021/03/09 09:12:48;;;;;;;0.27;0.20;;;;;;;-2.05;44.67;99999.27;1803644;78;21220;-59
2021/03/09 09:15:32;;;;;;;0.67;0.20;;;;;;;-2.08;44.70;99997.48;1806343;78;21129;-56
2021/03/09 09:18:01;;;;;;;0.57;0.20;;;;;;;-2.04;44.87;100006.31;1804502;78;21478;-59
2021/03/09 09:20:38;;;;;;;1.80;0.27;;;;;;;-1.97;45.08;100013.39;1799824;78;21198;-56
2021/03/09 09:23:11;;;;;;;0.80;0.40;;;;;;;-1.94;46.45;100016.02;1802954;78;21208;-59
2021/03/09 09:25:47;;;;;;;;;;;;;;;-2.06;48.07;100018.60;1809688;78;21141;-57
2021/03/09 09:31:23;;;;;;;0.40;0.30;;;;;;;-2.38;50.14;100026.25;1757288;79;25280;-57
2021/03/09 09:33:53;;;;;;;1.63;0.30;;;;;;;-2.54;51.17;100042.81;1727484;80;21041;-59
2021/03/09 09:36:22;;;;;;;0.57;0.30;;;;;;;-2.58;53.01;100044.99;1722275;80;21535;-57
2021/03/09 09:38:55;;;;;;;0.93;0.47;;;;;;;-2.63;53.75;100055.47;1726299;80;21140;-57
2021/03/09 09:41:23;;;;;;;1.80;0.23;;;;;;;-2.60;54.59;100040.14;1721319;80;20996;-56
2021/03/09 09:43:50;;;;;;;0.40;0.30;;;;;;;-2.50;52.71;100051.22;1705309;82;20993;-58
2021/03/09 09:46:26;;;;;;;0.60;0.30;;;;;;;-2.43;51.91;100044.69;1700476;82;20985;-57
2021/03/09 09:48:54;;;;;;;0.77;0.30;;;;;;;-2.33;52.64;100043.90;1700913;82;21241;-58
2021/03/09 09:51:24;;;;;;;0.50;0.30;;;;;;;-2.21;53.32;100049.68;1670526;82;21008;-58
2021/03/09 09:53:52;;;;;;;3.17;0.30;;;;;;;-2.08;54.09;100047.60;1702325;82;21151;-57
2021/03/09 09:56:23;;;;;;;0.57;0.30;;;;;;;-1.95;54.67;100047.23;1701948;82;21505;-58
2021/03/09 09:58:54;;;;;;;2.10;0.40;;;;;;;-1.95;55.48;100064.37;1701019;82;21112;-57
2021/03/09 10:01:39;;;;;;;0.70;0.30;;;;;;;-2.11;55.80;100058.11;1699659;82;21736;-58
2021/03/09 10:04:11;;;;;;;0.50;0.30;;;;;;;-2.20;55.61;100057.16;1697553;82;21636;-57
2021/03/09 10:06:47;;;;;;;1.27;0.30;;;;;;;-2.36;56.06;100067.59;1698225;82;21198;-57
2021/03/09 10:09:28;;;;;;;0.90;0.40;;;;;;;-2.53;55.73;100067.87;1699001;82;20965;-57
2021/03/09 10:12:01;;;;;;;0.90;0.50;;;;;;;-2.62;56.96;100065.59;1697036;82;21206;-58
2021/03/09 10:14:33;;;;;;;2.17;0.40;;;;;;;-2.64;57.60;100064.71;1695654;82;21337;-57
2021/03/09 10:17:01;;;;;;;0.80;0.50;;;;;;;-2.55;57.17;100069.61;1701097;82;20992;-58
2021/03/09 10:19:36;;;;;;;1.00;0.50;;;;;;;-2.53;56.40;100066.98;1701786;82;21143;-57
2021/03/09 10:22:26;;;;;;;0.93;0.40;;;;;;;-2.51;57.36;100067.47;1698576;82;22432;-58
2021/03/09 10:25:07;;;;;;;1.43;0.50;;;;;;;-2.35;56.43;100072.00;1703890;82;21124;-59
2021/03/09 10:27:35;;;;;;;3.43;1.47;;;;;;;-2.30;56.29;100071.59;1702472;82;22480;-57
2021/03/09 10:30:03;;;;;;;16.50;6.23;;;;;;;-2.30;55.43;100065.46;1702826;81;21170;-57
2021/03/09 10:32:31;;;;;;;1.80;0.70;;;;;;;-2.31;55.69;100071.17;1708457;81;21004;-57
2021/03/09 10:35:05;;;;;;;3.07;1.00;;;;;;;-2.30;53.95;100081.28;1708926;81;21131;-58
2021/03/09 10:37:37;;;;;;;0.98;0.53;;;;;;;-2.39;53.43;100074.61;1703773;81;21254;-57
2021/03/09 10:40:07;;;;;;;0.60;0.40;;;;;;;-2.40;53.19;100079.43;1704414;81;21398;-57
2021/03/09 10:42:45;;;;;;;1.50;0.33;;;;;;;-2.37;52.98;100076.36;1702779;81;21194;-58
2021/03/09 10:45:24;;;;;;;0.60;0.40;;;;;;;-2.25;52.19;100074.28;1705395;81;21508;-59
2021/03/09 10:47:55;;;;;;;0.70;0.40;;;;;;;-2.10;51.30;100055.93;1657869;84;21128;-59
2021/03/09 10:50:24;;;;;;;1.77;0.40;;;;;;;-2.02;50.00;100059.94;1695949;82;21139;-59
2021/03/09 10:52:52;;;;;;;0.80;0.50;;;;;;;-2.04;50.93;100066.98;1651598;84;21287;-58
2021/03/09 10:55:19;;;;;;;1.20;0.40;;;;;;;-2.00;50.12;100064.36;1654209;84;21702;-57
2021/03/09 10:57:47;;;;;;;0.77;0.40;;;;;;;-1.99;49.32;100064.81;1652083;84;21248;-60
2021/03/09 11:00:17;;;;;;;1.40;0.77;;;;;;;-2.08;49.01;100059.47;1654202;84;21635;-57
2021/03/09 11:02:47;;;;;;;3.27;0.47;;;;;;;-2.14;49.81;100071.30;1650798;84;21209;-57
2021/03/09 11:05:15;;;;;;;0.57;0.30;;;;;;;-2.14;50.02;100074.37;1656933;84;21832;-58
2021/03/09 11:07:44;;;;;;;3.03;0.30;;;;;;;-2.15;50.59;100073.92;1651654;84;21184;-58
2021/03/09 11:10:14;;;;;;;0.60;0.30;;;;;;;-2.16;51.17;100074.35;1653961;84;21155;-60
2021/03/09 11:12:41;;;;;;;0.57;0.30;;;;;;;-2.16;50.96;100076.99;1652347;84;21255;-59
2021/03/09 11:15:09;;;;;;;0.50;0.30;;;;;;;-2.15;50.97;100080.08;1653772;84;21208;-58
2021/03/09 11:17:37;;;;;;;1.53;0.40;;;;;;;-2.11;50.84;100078.33;1654058;84;21862;-58
2021/03/09 11:20:06;;;;;;;0.93;0.50;;;;;;;-2.07;50.70;100081.45;1651667;84;21169;-59
2021/03/09 11:22:33;;;;;;;0.77;0.30;;;;;;;-2.08;50.62;100079.25;1651524;84;21590;-59
2021/03/09 11:25:05;;;;;;;0.60;0.30;;;;;;;-2.10;49.68;100081.42;1654515;84;20978;-57
2021/03/09 11:27:33;;;;;;;2.30;0.40;;;;;;;-2.06;49.23;100068.72;1652524;84;21195;-58
2021/03/09 11:30:01;;;;;;;0.43;0.30;;;;;;;-2.03;49.24;100081.91;1688179;82;21274;-59
2021/03/09 11:32:28;;;;;;;1.53;0.40;;;;;;;-2.02;48.91;100077.97;1688585;82;21528;-58
2021/03/09 11:34:56;;;;;;;519.67;208.17;;;;;;;-2.03;48.57;100081.91;1689103;82;21189;-60
2021/03/09 11:37:23;;;;;;;126.00;42.00;;;;;;;-2.08;49.66;100082.33;1691600;82;21438;-59
2021/03/09 11:39:53;;;;;;;156.23;51.00;;;;;;;-2.18;53.16;100085.75;1688166;82;21178;-57
2021/03/09 11:42:20;;;;;;;158.80;50.33;;;;;;;-2.33;54.63;100083.88;1655089;84;21312;-57
2021/03/09 11:44:47;;;;;;;62.10;17.03;;;;;;;-2.44;55.87;100085.09;1690545;82;21499;-59
2021/03/09 11:47:14;;;;;;;123.20;36.37;;;;;;;-2.49;56.37;100085.94;1652656;84;21224;-58
2021/03/09 11:49:41;;;;;;;192.40;63.77;;;;;;;-2.59;56.74;100078.80;1656209;84;21792;-57
2021/03/09 11:52:09;;;;;;;35.37;10.10;;;;;;;-2.60;57.16;100084.94;1650546;84;21231;-60
2021/03/09 11:54:37;;;;;;;289.00;94.43;;;;;;;-2.56;57.32;100074.89;1654584;84;21220;-59